Time;durP1;ratioP1;P1;durP2;ratioP2;P2;SDS_P1;SDS_P2;PMS_P1;PMS_P2;Temp;Humidity;BMP_temperature;BMP_pressure;BME280_temperature;BME280_humidity;BME280_pressure;Samples;Min_cycle;Max_cycle;Signal;HPM_P1;HPM_P2
2023/09/18 00:00:52;;;;;;;19.58;14.52;;;;;;;20.62;100.00;100501.25;5115252;28;20028;-60
2023/09/18 00:03:24;;;;;;;20.02;14.50;;;;;;;20.63;100.00;100489.56;5116524;28;20030;-60
2023/09/18 00:05:50;;;;;;;17.70;14.60;;;;;;;20.63;100.00;100481.50;5116131;28;20107;-60
2023/09/18 00:08:17;;;;;;;19.25;15.20;;;;;;;20.58;100.00;100478.13;5116027;28;20035;-61
2023/09/18 00:10:47;;;;;;;15.93;14.23;;;;;;;20.58;100.00;100479.00;5114776;28;20035;-60
2023/09/18 00:13:12;;;;;;;17.98;14.80;;;;;;;20.54;100.00;100474.66;5115982;28;20024;-61
2023/09/18 00:15:38;;;;;;;18.73;15.38;;;;;;;20.55;100.00;100472.84;5115757;28;20358;-60
2023/09/18 00:18:04;;;;;;;19.80;14.70;;;;;;;20.54;100.00;100474.66;5115628;28;20051;-60
2023/09/18 00:20:29;;;;;;;18.00;14.77;;;;;;;20.51;100.00;100469.41;5116018;28;20027;-63
2023/09/18 00:22:55;;;;;;;19.58;15.27;;;;;;;20.49;100.00;100458.72;5115473;28;20034;-60
2023/09/18 00:25:21;;;;;;;17.38;14.57;;;;;;;20.48;100.00;100454.28;5115648;28;20039;-60
2023/09/18 00:27:46;;;;;;;20.30;14.38;;;;;;;20.47;100.00;100447.16;5115880;27;20031;-61
2023/09/18 00:30:11;;;;;;;18.23;14.50;;;;;;;20.46;100.00;100442.69;5115524;28;20024;-60
2023/09/18 00:32:37;;;;;;;21.30;14.63;;;;;;;20.48;100.00;100437.31;5115422;28;20119;-60
2023/09/18 00:35:03;;;;;;;18.58;14.70;;;;;;;20.46;100.00;100437.31;5114888;28;20078;-60
2023/09/18 00:37:29;;;;;;;17.25;14.10;;;;;;;20.44;100.00;100423.09;5115178;28;20048;-60
2023/09/18 00:39:54;;;;;;;18.70;13.95;;;;;;;20.45;100.00;100427.53;5115537;28;20409;-60
2023/09/18 00:42:22;;;;;;;16.85;13.85;;;;;;;20.44;100.00;100419.53;5115758;28;20436;-60
2023/09/18 00:44:47;;;;;;;20.35;13.48;;;;;;;20.46;100.00;100417.66;5115470;28;20032;-59
2023/09/18 00:47:14;;;;;;;18.90;13.85;;;;;;;20.45;100.00;100406.06;5115384;28;20038;-60
2023/09/18 00:49:41;;;;;;;16.88;13.50;;;;;;;20.44;100.00;100403.44;5115447;28;20056;-60
2023/09/18 00:52:09;;;;;;;17.52;13.77;;;;;;;20.42;100.00;100400.78;5115324;28;20028;-61
2023/09/18 00:54:36;;;;;;;16.85;13.05;;;;;;;20.41;100.00;100400.84;5113915;28;20020;-60
2023/09/18 00:57:04;;;;;;;14.95;11.90;;;;;;;20.41;100.00;100404.41;5115123;28;20111;-60
2023/09/18 00:59:30;;;;;;;17.90;13.48;;;;;;;20.38;100.00;100396.47;5115053;28;20024;-60
2023/09/18 01:01:56;;;;;;;19.13;12.77;;;;;;;20.38;100.00;100387.53;5115243;28;20051;-60
2023/09/18 01:04:22;;;;;;;14.63;12.18;;;;;;;20.38;100.00;100387.53;5114924;27;20099;-61
2023/09/18 01:06:49;;;;;;;14.25;11.07;;;;;;;20.37;100.00;100381.31;5114676;28;20031;-61
2023/09/18 01:09:18;;;;;;;17.60;11.38;;;;;;;20.33;100.00;100365.38;5113845;28;20019;-61
2023/09/18 01:11:57;;;;;;;14.55;10.65;;;;;;;20.36;100.00;100358.09;5114275;27;20027;-61
2023/09/18 01:14:33;;;;;;;13.40;10.85;;;;;;;20.35;100.00;100359.03;5114860;28;20098;-60
2023/09/18 01:17:04;;;;;;;15.63;10.52;;;;;;;20.32;100.00;100358.25;5114977;28;20019;-61
2023/09/18 01:19:46;;;;;;;12.93;10.45;;;;;;;20.31;100.00;100352.03;5114795;28;20070;-64
2023/09/18 01:22:17;;;;;;;12.00;9.98;;;;;;;20.31;100.00;100348.47;5114676;28;20534;-61
2023/09/18 01:24:45;;;;;;;14.13;9.85;;;;;;;20.30;100.00;100339.56;5114916;28;20024;-61
2023/09/18 01:27:13;;;;;;;13.85;9.82;;;;;;;20.31;100.00;100348.47;5114805;28;20121;-60
2023/09/18 01:29:39;;;;;;;12.30;9.10;;;;;;;20.29;100.00;100345.81;5113501;28;20050;-61
2023/09/18 01:32:05;;;;;;;13.30;9.60;;;;;;;20.25;100.00;100345.06;5114387;27;20461;-61
2023/09/18 01:34:39;;;;;;;12.02;9.23;;;;;;;20.25;100.00;100347.75;5113181;28;20048;-61
2023/09/18 01:37:05;;;;;;;14.50;8.55;;;;;;;20.25;100.00;100341.50;5114537;28;20266;-60
2023/09/18 01:39:32;;;;;;;17.42;9.15;;;;;;;20.23;100.00;100346.06;5113070;28;20023;-60
2023/09/18 01:42:05;;;;;;;16.33;8.63;;;;;;;20.25;100.00;100344.19;5114317;28;20062;-60
2023/09/18 01:44:31;;;;;;;10.63;8.25;;;;;;;20.24;100.00;100354.06;5112851;28;20473;-60
2023/09/18 01:47:03;;;;;;;12.52;8.60;;;;;;;20.21;100.00;100340.78;5114192;28;20488;-59
2023/09/18 01:49:34;;;;;;;14.23;8.63;;;;;;;20.22;100.00;100357.75;5113895;28;20575;-60
2023/09/18 01:52:00;;;;;;;11.23;8.32;;;;;;;20.20;100.00;100343.50;5113964;28;20481;-59
2023/09/18 01:54:25;;;;;;;14.48;8.43;;;;;;;20.20;100.00;100335.44;5113949;28;20039;-62
2023/09/18 01:56:51;;;;;;;15.98;8.07;;;;;;;20.22;100.00;100344.31;5113013;28;20030;-60
2023/09/18 01:59:17;;;;;;;15.38;7.93;;;;;;;20.23;100.00;100333.53;5113807;28;20528;-61
2023/09/18 02:01:43;;;;;;;16.02;7.78;;;;;;;20.23;100.00;100341.56;5113922;28;20023;-61
2023/09/18 02:04:09;;;;;;;14.50;7.40;;;;;;;20.24;100.00;100339.75;5113867;28;20370;-61
2023/09/18 02:06:36;;;;;;;11.57;7.30;;;;;;;20.25;100.00;100339.69;5112995;28;20038;-60
2023/09/18 02:09:03;;;;;;;10.60;6.97;;;;;;;20.27;100.00;100340.53;5113750;28;20110;-62
2023/09/18 02:11:29;;;;;;;11.88;7.30;;;;;;;20.26;100.00;100338.78;5113879;28;20069;-61
2023/09/18 02:13:54;;;;;;;9.13;6.50;;;;;;;20.29;100.00;100328.84;5113631;28;20061;-59
2023/09/18 02:16:23;;;;;;;13.45;7.22;;;;;;;20.30;100.00;100323.44;5113163;28;20047;-60
2023/09/18 02:18:50;;;;;;;14.05;7.07;;;;;;;20.31;100.00;100322.50;5113349;28;20031;-58
2023/09/18 02:21:20;;;;;;;11.18;6.95;;;;;;;20.34;100.00;100324.19;5113634;28;20161;-61
2023/09/18 02:23:48;;;;;;;14.23;7.45;;;;;;;20.35;100.00;100316.09;5112893;28;20484;-59
2023/09/18 02:26:13;;;;;;;16.65;7.05;;;;;;;20.39;100.00;100323.09;5113502;28;20028;-61
2023/09/18 02:28:39;;;;;;;11.70;6.75;;;;;;;20.40;100.00;100314.09;5113300;28;20157;-60
2023/09/18 02:31:04;;;;;;;14.93;7.60;;;;;;;20.40;100.00;100311.44;5113019;28;20043;-60
2023/09/18 02:33:30;;;;;;;12.32;7.15;;;;;;;20.38;100.00;100299.84;5113653;28;20024;-61
2023/09/18 02:35:55;;;;;;;13.55;6.80;;;;;;;20.40;100.00;100294.44;5111869;28;20138;-61
2023/09/18 02:38:21;;;;;;;11.90;7.10;;;;;;;20.41;100.00;100275.59;5113451;28;20097;-60
2023/09/18 02:40:46;;;;;;;14.32;7.05;;;;;;;20.44;100.00;100262.06;5113314;28;20027;-61
2023/09/18 02:43:11;;;;;;;13.43;6.45;;;;;;;20.42;100.00;100266.59;5113357;28;20027;-61
2023/09/18 02:45:37;;;;;;;13.30;6.60;;;;;;;20.37;100.00;100252.50;5112852;28;20444;-62
2023/09/18 02:48:03;;;;;;;14.63;6.93;;;;;;;20.34;100.00;100262.47;5113148;28;20028;-63
2023/09/18 02:50:28;;;;;;;14.27;7.00;;;;;;;20.32;100.00;100251.81;5113341;28;20055;-62
2023/09/18 02:52:53;;;;;;;12.13;6.82;;;;;;;20.31;100.00;100243.81;5113257;28;20102;-62
2023/09/18 02:55:19;;;;;;;14.48;7.10;;;;;;;20.30;100.00;100245.63;5113219;28;20024;-62
2023/09/18 02:57:45;;;;;;;13.18;6.93;;;;;;;20.20;100.00;100244.22;5113400;28;20071;-62
2023/09/18 03:00:10;;;;;;;11.55;6.78;;;;;;;20.22;100.00;100234.31;5113258;28;20110;-62
2023/09/18 03:02:36;;;;;;;12.98;6.68;;;;;;;20.22;100.00;100234.31;5113257;28;20078;-62
2023/09/18 03:05:01;;;;;;;11.70;6.07;;;;;;;20.25;100.00;100242.22;5113134;28;20059;-60
2023/09/18 03:07:29;;;;;;;16.80;6.50;;;;;;;20.25;100.00;100244.91;5113076;28;20039;-60
2023/09/18 03:09:55;;;;;;;19.25;5.90;;;;;;;20.28;100.00;100231.38;5113366;28;20096;-60
2023/09/18 03:12:22;;;;;;;11.05;5.57;;;;;;;20.31;100.00;100231.28;5111978;28;20041;-60
2023/09/18 03:14:48;;;;;;;11.10;5.95;;;;;;;20.32;100.00;100229.47;5111795;28;20019;-60
2023/09/18 03:17:13;;;;;;;12.75;5.95;;;;;;;20.35;100.00;100221.31;5112986;28;20031;-59
2023/09/18 03:19:39;;;;;;;11.43;5.95;;;;;;;20.35;100.00;100221.31;5112971;28;20031;-60
2023/09/18 03:22:04;;;;;;;15.02;6.20;;;;;;;20.36;100.00;100213.19;5112973;28;20370;-60
2023/09/18 03:24:29;;;;;;;14.80;6.07;;;;;;;20.40;100.00;100220.19;5113265;28;20058;-60
2023/09/18 03:26:55;;;;;;;13.25;6.00;;;;;;;20.42;100.00;100212.06;5113227;28;20031;-60
2023/09/18 03:29:20;;;;;;;11.43;6.10;;;;;;;20.46;100.00;100225.28;5111942;28;20465;-61
2023/09/18 03:31:46;;;;;;;18.10;6.20;;;;;;;20.40;100.00;100251.50;5112930;28;20020;-60
2023/09/18 03:34:11;;;;;;;13.77;6.13;;;;;;;20.35;100.00;100240.97;5112389;28;20045;-60
2023/09/18 03:36:38;;;;;;;14.73;5.85;;;;;;;20.33;100.00;100215.97;5115783;28;20035;-60
2023/09/18 03:39:04;;;;;;;16.77;6.10;;;;;;;20.33;100.00;100236.56;5116928;28;20089;-60
2023/09/18 03:41:33;;;;;;;12.73;5.93;;;;;;;20.34;100.00;100232.94;5116892;28;20032;-61
2023/09/18 03:44:00;;;;;;;14.52;6.28;;;;;;;20.31;100.00;100244.69;5116325;28;20111;-60
2023/09/18 03:46:25;;;;;;;13.65;6.40;;;;;;;20.30;100.00;100245.63;5116514;28;20122;-60
2023/09/18 03:48:51;;;;;;;14.80;6.07;;;;;;;20.29;100.00;100254.59;5116219;28;20028;-61
2023/09/18 03:51:18;;;;;;;13.40;6.40;;;;;;;20.25;100.00;100243.09;5116258;28;20027;-60
2023/09/18 03:53:44;;;;;;;14.50;6.10;;;;;;;20.22;100.00;100253.09;5098174;28;20114;-59
2023/09/18 03:56:09;;;;;;;15.32;6.38;;;;;;;20.22;100.00;100237.00;5116364;27;20115;-61
2023/09/18 03:58:35;;;;;;;12.20;6.30;;;;;;;20.23;100.00;100234.25;5116184;28;20039;-59
2023/09/18 04:01:00;;;;;;;14.25;6.57;;;;;;;20.21;100.00;100224.50;5116248;28;20070;-59
2023/09/18 04:03:26;;;;;;;17.30;6.88;;;;;;;20.21;100.00;100206.63;5114849;28;20024;-60
2023/09/18 04:05:51;;;;;;;16.48;6.70;;;;;;;20.23;100.00;100226.22;5116121;28;20027;-60
2023/09/18 04:08:17;;;;;;;13.88;6.47;;;;;;;20.18;100.00;100246.97;5116080;27;20106;-60
2023/09/18 04:10:44;;;;;;;14.80;6.53;;;;;;;20.19;100.00;100248.72;5116277;28;20077;-61
2023/09/18 04:13:10;;;;;;;21.52;6.90;;;;;;;20.22;100.00;100250.41;5116194;28;20065;-61
2023/09/18 04:15:37;;;;;;;16.80;6.72;;;;;;;20.17;100.00;100257.75;5115844;28;20533;-61
2023/09/18 04:18:04;;;;;;;18.08;6.80;;;;;;;20.17;100.00;100266.69;5115922;28;20050;-61
2023/09/18 04:20:30;;;;;;;17.25;7.22;;;;;;;20.17;100.00;100258.66;5116112;28;20038;-61
2023/09/18 04:23:20;;;;;;;13.75;6.75;;;;;;;20.18;100.00;100257.72;5115698;28;20020;-61
2023/09/18 04:25:45;;;;;;;12.23;7.38;;;;;;;20.13;100.00;100245.41;5116061;28;20050;-60
2023/09/18 04:28:12;;;;;;;17.45;7.30;;;;;;;20.11;100.00;100232.03;5115726;28;20477;-61
2023/09/18 04:30:38;;;;;;;15.15;7.47;;;;;;;20.10;100.00;100219.56;5115543;28;20111;-61
2023/09/18 04:33:03;;;;;;;14.73;7.40;;;;;;;20.09;100.00;100219.63;5115662;28;20110;-60
2023/09/18 04:35:31;;;;;;;14.90;7.40;;;;;;;20.09;100.00;100211.59;5114171;28;20397;-60
2023/09/18 04:37:56;;;;;;;14.18;8.20;;;;;;;20.05;100.00;100208.16;5115063;28;20050;-60
2023/09/18 04:40:23;;;;;;;18.77;8.05;;;;;;;20.01;100.00;100209.19;5115857;28;20389;-60
2023/09/18 04:42:49;;;;;;;17.25;7.88;;;;;;;20.01;100.00;100207.38;5115432;28;20028;-61
2023/09/18 04:45:15;;;;;;;15.43;7.53;;;;;;;20.00;100.00;100197.59;5115216;28;20024;-61
2023/09/18 04:47:41;;;;;;;14.82;7.47;;;;;;;19.98;100.00;100156.53;5114649;28;20031;-62
2023/09/18 04:50:09;;;;;;;15.00;7.80;;;;;;;20.06;100.00;100158.06;5115298;28;20393;-61
2023/09/18 04:52:38;;;;;;;13.43;7.80;;;;;;;20.05;100.00;100157.19;5115090;28;20053;-59
2023/09/18 04:55:06;;;;;;;15.18;7.68;;;;;;;20.05;100.00;100159.88;5115445;28;20438;-60
2023/09/18 04:57:31;;;;;;;14.70;8.23;;;;;;;20.02;100.00;100160.84;5115165;28;20081;-60
2023/09/18 04:59:56;;;;;;;16.67;8.38;;;;;;;20.01;100.00;100156.44;5115030;27;20027;-59
2023/09/18 05:02:25;;;;;;;14.85;8.48;;;;;;;19.98;100.00;100153.84;5115091;28;20489;-58
2023/09/18 05:04:50;;;;;;;16.55;8.60;;;;;;;19.98;100.00;100163.72;5114984;28;20104;-60
2023/09/18 05:07:16;;;;;;;12.82;8.30;;;;;;;19.93;100.00;100158.53;5114907;28;20107;-61
2023/09/18 05:09:41;;;;;;;15.88;8.43;;;;;;;19.93;100.00;100157.66;5113754;28;20028;-60
2023/09/18 05:12:13;;;;;;;14.23;8.35;;;;;;;19.89;100.00;100150.66;5114721;28;20092;-60
2023/09/18 05:14:39;;;;;;;13.25;7.65;;;;;;;19.84;100.00;100153.53;5114668;28;20032;-61
2023/09/18 05:17:05;;;;;;;14.68;7.30;;;;;;;19.81;100.00;100160.81;5114949;28;20035;-61
2023/09/18 05:19:30;;;;;;;12.77;6.97;;;;;;;19.79;100.00;100158.19;5114496;28;20020;-61
2023/09/18 05:21:55;;;;;;;9.75;5.45;;;;;;;19.80;100.00;100159.94;5114553;28;20028;-60
2023/09/18 05:24:26;;;;;;;8.25;5.07;;;;;;;19.78;100.00;100159.09;5114624;28;20024;-60
2023/09/18 05:26:53;;;;;;;9.25;4.85;;;;;;;19.81;100.00;100166.19;5114659;28;20046;-61
2023/09/18 05:29:19;;;;;;;7.43;4.32;;;;;;;19.82;100.00;100176.84;5114505;28;20038;-60
2023/09/18 05:31:45;;;;;;;11.70;4.90;;;;;;;19.82;100.00;100167.91;5114361;27;20489;-60
2023/09/18 05:34:11;;;;;;;5.90;3.78;;;;;;;19.81;100.00;100177.78;5114342;28;20032;-60
2023/09/18 05:36:36;;;;;;;7.95;3.28;;;;;;;19.81;100.00;100175.09;5112982;28;20044;-60
2023/09/18 05:39:03;;;;;;;8.85;3.63;;;;;;;19.79;100.00;100168.06;5114032;28;20034;-61
2023/09/18 05:41:28;;;;;;;5.82;3.22;;;;;;;19.80;100.00;100176.03;5114058;28;20103;-61
2023/09/18 05:43:55;;;;;;;6.40;3.20;;;;;;;19.81;100.00;100179.59;5114333;28;20106;-61
2023/09/18 05:46:20;;;;;;;5.93;3.20;;;;;;;19.77;100.00;100173.47;5113697;28;20023;-61
2023/09/18 05:48:46;;;;;;;7.85;3.13;;;;;;;19.76;100.00;100179.75;5113587;28;20039;-59
2023/09/18 05:51:11;;;;;;;9.85;2.85;;;;;;;19.77;100.00;100182.38;5112357;28;20060;-61
2023/09/18 05:53:37;;;;;;;6.57;2.80;;;;;;;19.80;100.00;100186.75;5113868;28;20027;-61
2023/09/18 05:56:04;;;;;;;7.03;2.80;;;;;;;19.76;100.00;100177.94;5113469;28;20115;-59
2023/09/18 05:58:31;;;;;;;6.07;3.00;;;;;;;19.75;100.00;100194.97;5112970;28;20023;-61
2023/09/18 06:01:01;;;;;;;6.53;2.80;;;;;;;19.73;100.00;100196.81;5113230;28;20023;-61
2023/09/18 06:03:35;;;;;;;5.88;2.70;;;;;;;19.70;100.00;100193.41;5113482;28;20035;-61
2023/09/18 06:06:01;;;;;;;5.13;2.80;;;;;;;19.68;100.00;100187.22;5113778;28;20130;-61
2023/09/18 06:08:28;;;;;;;6.40;2.70;;;;;;;19.69;100.00;100207.72;5113451;28;20081;-61
2023/09/18 06:10:55;;;;;;;4.97;2.70;;;;;;;19.66;100.00;100203.38;5113765;28;20034;-61
2023/09/18 06:13:20;;;;;;;4.00;2.45;;;;;;;19.64;100.00;100212.38;5113162;28;20518;-61
2023/09/18 06:15:46;;;;;;;8.00;2.70;;;;;;;19.65;100.00;100223.03;5112981;28;20122;-60
2023/09/18 06:18:11;;;;;;;5.88;2.70;;;;;;;19.61;100.00;100213.34;5113006;28;20102;-60
2023/09/18 06:20:37;;;;;;;5.57;2.60;;;;;;;19.59;100.00;100217.88;5113224;28;20500;-60
2023/09/18 06:23:03;;;;;;;4.82;2.80;;;;;;;19.56;100.00;100211.75;5113428;28;20153;-61
2023/09/18 06:25:31;;;;;;;5.57;2.50;;;;;;;19.56;100.00;100209.94;5112079;28;20028;-60
2023/09/18 06:27:56;;;;;;;5.03;2.55;;;;;;;19.54;100.00;100217.16;5113506;28;20031;-60
2023/09/18 06:30:22;;;;;;;5.45;2.60;;;;;;;19.53;100.00;100228.84;5112926;28;20154;-61
2023/09/18 06:32:47;;;;;;;6.93;2.70;;;;;;;19.48;100.00;100234.31;5111937;28;20051;-61
2023/09/18 06:35:13;;;;;;;5.35;2.50;;;;;;;19.50;100.00;100228.94;5113108;28;20048;-60
2023/09/18 06:37:38;;;;;;;7.95;2.63;;;;;;;19.52;100.00;100216.34;5113215;28;20111;-60
2023/09/18 06:40:05;;;;;;;5.75;2.42;;;;;;;19.54;100.00;100241.28;5113022;28;20103;-60
2023/09/18 06:42:31;;;;;;;5.47;2.28;;;;;;;19.52;100.00;100241.31;5113149;28;20111;-60
2023/09/18 06:44:56;;;;;;;5.93;2.70;;;;;;;19.47;100.00;100247.78;5113114;28;20134;-61
2023/09/18 06:47:24;;;;;;;7.07;2.60;;;;;;;19.48;100.00;100257.56;5112908;28;20038;-61
2023/09/18 06:49:49;;;;;;;5.78;2.50;;;;;;;19.49;100.00;100249.50;5112772;28;20383;-61
2023/09/18 06:52:14;;;;;;;8.60;2.67;;;;;;;19.50;100.00;100255.72;5113015;28;20031;-60
2023/09/18 06:54:40;;;;;;;5.38;2.75;;;;;;;19.51;100.00;100258.34;5112943;28;20081;-61
2023/09/18 06:57:06;;;;;;;4.85;2.63;;;;;;;19.53;100.00;100261.00;5113144;28;20115;-60
2023/09/18 06:59:33;;;;;;;3.90;2.30;;;;;;;19.54;100.00;100264.53;5112874;28;20047;-60
2023/09/18 07:01:59;;;;;;;6.70;2.80;;;;;;;19.54;100.00;100270.78;5112700;28;20110;-59
2023/09/18 07:04:25;;;;;;;6.25;2.30;;;;;;;19.55;100.00;100269.84;5113198;28;20036;-60
2023/09/18 07:06:53;;;;;;;4.95;2.70;;;;;;;19.57;100.00;100268.00;5112779;28;20043;-61
2023/09/18 07:09:18;;;;;;;4.53;2.85;;;;;;;19.58;100.00;100260.81;5113055;28;20323;-60
2023/09/18 07:11:44;;;;;;;7.00;2.63;;;;;;;19.60;100.00;100261.63;5116118;28;20035;-60
2023/09/18 07:14:09;;;;;;;4.30;2.60;;;;;;;19.57;100.00;100261.72;5117008;28;20023;-59
2023/09/18 07:16:35;;;;;;;4.40;2.55;;;;;;;19.63;100.00;100277.66;5116703;28;20640;-59
2023/09/18 07:19:01;;;;;;;6.70;2.42;;;;;;;19.62;100.00;100267.84;5116799;28;20034;-60
2023/09/18 07:21:27;;;;;;;5.32;2.50;;;;;;;19.62;100.00;100279.44;5116695;28;20027;-60
2023/09/18 07:23:52;;;;;;;4.80;2.80;;;;;;;19.61;100.00;100284.84;5116642;28;20103;-59
2023/09/18 07:26:17;;;;;;;5.53;2.83;;;;;;;19.60;100.00;100278.59;5116873;28;20024;-62
2023/09/18 07:28:44;;;;;;;4.80;2.60;;;;;;;19.58;100.00;100287.63;5116504;28;20019;-59
2023/09/18 07:31:12;;;;;;;6.13;2.47;;;;;;;19.56;100.00;100274.25;5116441;28;20485;-61
2023/09/18 07:33:38;;;;;;;4.90;2.60;;;;;;;19.63;100.00;100283.00;5116457;28;20377;-61
2023/09/18 07:36:04;;;;;;;5.28;2.60;;;;;;;19.59;100.00;100281.31;5116515;28;20046;-61
2023/09/18 07:38:30;;;;;;;5.78;2.70;;;;;;;19.59;100.00;100282.19;5116365;28;20034;-60
2023/09/18 07:40:56;;;;;;;4.28;2.55;;;;;;;19.60;100.00;100289.31;5116577;28;20034;-61
2023/09/18 07:43:22;;;;;;;6.63;2.72;;;;;;;19.66;100.00;100288.25;5115274;28;20436;-61
2023/09/18 07:45:49;;;;;;;5.50;2.60;;;;;;;19.61;100.00;100284.84;5116199;28;20028;-60
2023/09/18 07:48:17;;;;;;;5.25;2.50;;;;;;;19.64;100.00;100282.06;5115970;28;20107;-61
2023/09/18 07:50:46;;;;;;;5.63;3.00;;;;;;;19.62;100.00;100286.63;5116282;28;20036;-61
2023/09/18 07:53:11;;;;;;;6.00;2.65;;;;;;;19.68;100.00;100289.06;5114816;28;20389;-61
2023/09/18 07:55:37;;;;;;;5.80;2.85;;;;;;;19.69;100.00;100288.13;5116189;28;20031;-60
2023/09/18 07:58:04;;;;;;;5.10;2.67;;;;;;;19.70;100.00;100290.78;5116249;28;20477;-60
2023/09/18 08:00:30;;;;;;;7.30;2.58;;;;;;;19.72;100.00;100288.03;5115670;28;20106;-62
2023/09/18 08:03:00;;;;;;;7.10;2.78;;;;;;;19.74;99.96;100287.06;5115974;28;20236;-61
2023/09/18 08:05:30;;;;;;;5.32;2.63;;;;;;;19.75;99.02;100290.63;5116184;28;20164;-60
2023/09/18 08:07:56;;;;;;;3.45;2.38;;;;;;;19.76;98.97;100282.50;5115887;28;20100;-60
2023/09/18 08:10:22;;;;;;;5.55;2.60;;;;;;;19.74;99.32;100279.03;5115872;28;20031;-60
2023/09/18 08:12:48;;;;;;;4.03;2.60;;;;;;;19.82;99.57;100289.44;5115904;28;20027;-60
2023/09/18 08:15:14;;;;;;;5.82;2.60;;;;;;;19.87;98.42;100292.84;5115863;28;20031;-60
2023/09/18 08:17:40;;;;;;;6.93;2.45;;;;;;;19.79;97.39;100278.84;5115657;28;20031;-61
2023/09/18 08:20:12;;;;;;;5.72;2.70;;;;;;;19.85;97.02;100294.69;5115309;28;20030;-60
2023/09/18 08:22:37;;;;;;;7.10;2.63;;;;;;;19.89;97.14;100295.47;5114461;28;20038;-61
2023/09/18 08:25:03;;;;;;;4.18;2.50;;;;;;;20.08;97.11;100307.25;5115537;28;20356;-60
2023/09/18 08:27:29;;;;;;;5.72;2.40;;;;;;;20.30;95.71;100301.09;5115545;28;20480;-61
2023/09/18 08:29:54;;;;;;;7.68;2.90;;;;;;;20.44;95.09;100309.50;5115464;28;20028;-60
2023/09/18 08:32:19;;;;;;;6.05;2.55;;;;;;;20.58;94.36;100312.56;5115621;28;20031;-61
2023/09/18 08:34:45;;;;;;;6.60;2.20;;;;;;;20.68;93.19;100311.25;5115076;28;20019;-60
2023/09/18 08:37:10;;;;;;;7.47;2.63;;;;;;;20.70;92.79;100325.50;5115267;28;20039;-60
2023/09/18 08:39:37;;;;;;;8.63;2.53;;;;;;;20.70;91.49;100325.50;5115268;28;20028;-62
2023/09/18 08:42:05;;;;;;;6.85;2.70;;;;;;;20.55;91.40;100330.56;5115489;28;20031;-61
2023/09/18 08:44:31;;;;;;;6.03;2.55;;;;;;;20.67;91.64;100330.97;5115362;28;20363;-61
2023/09/18 08:46:57;;;;;;;4.57;2.53;;;;;;;20.61;90.75;100331.22;5115430;28;20076;-61
2023/09/18 08:49:27;;;;;;;5.97;2.40;;;;;;;20.71;90.85;100337.97;5114958;28;20024;-59
2023/09/18 08:51:55;;;;;;;6.70;2.60;;;;;;;20.85;88.70;100334.75;5115165;28;20145;-61
2023/09/18 08:54:24;;;;;;;4.88;2.42;;;;;;;20.97;89.07;100334.25;5114839;28;20125;-60
2023/09/18 08:56:51;;;;;;;5.30;2.67;;;;;;;20.95;88.89;100328.09;5115016;28;20031;-60
2023/09/18 08:59:16;;;;;;;5.45;2.60;;;;;;;20.99;89.39;100326.16;5114881;28;20023;-60
2023/09/18 09:01:42;;;;;;;3.92;2.40;;;;;;;21.14;89.22;100338.06;5115001;28;20016;-60
2023/09/18 09:04:07;;;;;;;7.55;2.58;;;;;;;21.14;86.01;100336.25;5114564;28;20024;-59
2023/09/18 09:06:33;;;;;;;7.25;3.40;;;;;;;21.21;87.39;100329.69;5114626;28;20028;-60
2023/09/18 09:08:59;;;;;;;8.30;4.30;;;;;;;21.60;86.59;100330.81;5114554;28;20100;-61
2023/09/18 09:11:24;;;;;;;10.18;5.35;;;;;;;21.85;85.05;100323.41;5114899;28;20043;-60
2023/09/18 09:14:11;;;;;;;7.97;4.57;;;;;;;22.18;83.16;100323.78;5113214;28;20020;-60
2023/09/18 09:16:39;;;;;;;11.75;6.65;;;;;;;22.44;81.94;100332.44;5114412;28;20119;-59
2023/09/18 09:19:05;;;;;;;21.17;13.20;;;;;;;22.64;80.26;100337.75;5114238;28;20026;-61
2023/09/18 09:21:43;;;;;;;7.35;3.20;;;;;;;22.86;80.15;100334.03;5114235;28;20028;-60
2023/09/18 09:24:08;;;;;;;7.68;2.85;;;;;;;22.82;78.04;100336.00;5114494;28;20119;-61
2023/09/18 09:26:36;;;;;;;6.90;3.20;;;;;;;22.88;78.37;100354.59;5114316;28;20110;-61
2023/09/18 09:29:18;;;;;;;7.50;3.05;;;;;;;23.06;78.14;100347.47;5114458;28;20031;-60
2023/09/18 09:31:45;;;;;;;7.20;3.10;;;;;;;23.05;77.11;100358.34;5113872;28;20354;-59
2023/09/18 09:34:11;;;;;;;9.15;3.00;;;;;;;22.98;78.65;100334.34;5114202;28;20032;-59
2023/09/18 09:36:50;;;;;;;6.20;3.40;;;;;;;23.31;77.78;100351.66;5113633;28;20405;-60
2023/09/18 09:39:16;;;;;;;10.85;3.10;;;;;;;23.37;75.48;100356.72;5114068;28;20054;-60
2023/09/18 09:41:46;;;;;;;8.10;2.90;;;;;;;23.39;75.44;100369.19;5113868;28;20046;-60
2023/09/18 09:44:13;;;;;;;5.05;2.83;;;;;;;23.16;75.90;100354.13;5113882;28;20039;-60
2023/09/18 09:46:46;;;;;;;11.80;3.40;;;;;;;22.83;75.71;100355.75;5114054;28;20028;-60
2023/09/18 09:49:11;;;;;;;6.32;3.05;;;;;;;22.70;77.20;100358.16;5113734;28;20027;-61
2023/09/18 09:51:37;;;;;;;8.77;3.17;;;;;;;22.53;77.37;100348.19;5113588;28;20032;-61
2023/09/18 09:54:02;;;;;;;7.72;2.83;;;;;;;;;;5113612;28;20023;-60
2023/09/18 09:56:44;;;;;;;6.57;2.92;;;;;;;22.60;78.61;100335.28;5113913;28;20492;-59
2023/09/18 09:59:11;;;;;;;10.73;3.30;;;;;;;22.49;78.46;100351.97;5112684;28;20035;-58
2023/09/18 10:01:38;;;;;;;6.90;3.10;;;;;;;22.43;78.84;100341.47;5113362;28;20015;-59
2023/09/18 10:04:08;;;;;;;11.38;3.10;;;;;;;22.37;79.17;100349.84;5113707;28;20020;-60
2023/09/18 10:06:35;;;;;;;7.13;3.10;;;;;;;22.28;78.40;100361.91;5113678;28;20107;-61
2023/09/18 10:09:07;;;;;;;10.85;3.65;;;;;;;22.17;79.64;100372.25;5113432;28;20039;-60
2023/09/18 10:11:36;;;;;;;9.18;3.08;;;;;;;22.14;79.80;100372.38;5113413;28;20035;-60
2023/09/18 10:14:10;;;;;;;8.25;3.47;;;;;;;22.22;81.00;100381.00;5113203;28;20063;-60
2023/09/18 10:16:38;;;;;;;8.60;3.17;;;;;;;22.24;80.60;100380.00;5113144;28;20582;-59
2023/09/18 10:19:19;;;;;;;7.60;3.47;;;;;;;22.38;79.95;100376.66;5113054;28;20011;-60
2023/09/18 10:21:50;;;;;;;7.38;3.10;;;;;;;22.39;80.41;100391.88;5113235;28;20051;-60
2023/09/18 10:24:25;;;;;;;9.60;3.23;;;;;;;22.35;79.83;100381.31;5113353;28;20023;-59
2023/09/18 10:26:58;;;;;;;7.47;3.10;;;;;;;22.33;79.85;100367.94;5113620;28;20054;-59
2023/09/18 10:29:29;;;;;;;7.80;3.10;;;;;;;22.39;79.29;100359.56;5113092;28;20103;-59
2023/09/18 10:31:55;;;;;;;9.95;3.25;;;;;;;22.51;78.10;100368.91;5113173;28;20476;-60
2023/09/18 10:34:23;;;;;;;5.88;2.97;;;;;;;22.61;77.67;100372.03;5112936;28;20030;-59
2023/09/18 10:36:50;;;;;;;5.07;3.00;;;;;;;22.70;77.67;100377.03;5111405;28;20043;-61
2023/09/18 10:39:19;;;;;;;7.75;3.05;;;;;;;22.90;77.26;100371.56;5113195;28;20035;-60
2023/09/18 10:41:48;;;;;;;6.75;3.10;;;;;;;23.13;77.28;100361.53;5113251;28;20043;-60
2023/09/18 10:44:17;;;;;;;6.82;2.95;;;;;;;23.40;74.56;100370.94;5113169;28;20024;-61
2023/09/18 10:46:43;;;;;;;8.40;2.90;;;;;;;23.36;75.29;100363.94;5119216;27;20473;-60
2023/09/18 10:49:08;;;;;;;5.50;3.20;;;;;;;23.20;75.59;100365.66;5120085;27;20100;-61
2023/09/18 10:51:33;;;;;;;8.50;3.08;;;;;;;22.99;76.14;100367.56;5119873;27;20438;-59
2023/09/18 10:54:00;;;;;;;11.38;3.40;;;;;;;22.86;75.64;100367.25;5120092;28;20488;-59
2023/09/18 10:56:26;;;;;;;5.82;3.30;;;;;;;22.63;76.59;100364.78;5119788;27;20035;-59
2023/09/18 10:59:03;;;;;;;8.20;3.42;;;;;;;22.58;76.38;100370.38;5119954;27;20034;-60
2023/09/18 11:01:30;;;;;;;7.82;3.30;;;;;;;22.73;75.99;100356.19;5118436;28;20486;-60
2023/09/18 11:04:04;;;;;;;8.30;3.10;;;;;;;22.79;75.60;100362.25;5120093;27;20027;-61
2023/09/18 11:06:29;;;;;;;7.00;3.17;;;;;;;22.97;76.88;100353.31;5119686;27;20058;-63
2023/09/18 11:09:06;;;;;;;9.00;3.22;;;;;;;23.11;74.25;100353.50;5119721;27;20063;-61
2023/09/18 11:11:32;;;;;;;6.97;3.30;;;;;;;23.19;74.15;100353.13;5119825;27;20035;-61
2023/09/18 11:13:59;;;;;;;6.80;3.20;;;;;;;23.44;72.57;100364.44;5119711;27;20031;-61